| time (UTC) | temp C | wind direction | speed KPH | gust KPH | rain 1hr cm | rain 24hr cm | rain mn cm | humidity % | barometer mb |
| 20260506114552 | 12 | 0 | 1.6 | 12.9 | 0.00 | 0.56 | 0.18 | 73 | 1010.3 |
| 20260506113055 | 13 | 257 | 1.6 | 14.5 | 0.00 | 0.56 | 0.18 | 74 | 1010.3 |
| 20260506111552 | 12 | 345 | 1.6 | 11.3 | 0.00 | 0.56 | 0.18 | 76 | 1010.3 |
| 20260506110050 | 12 | 306 | 1.6 | 9.7 | 0.00 | 0.56 | 0.18 | 77 | 1010.3 |
| 20260506104549 | 11 | 281 | 1.6 | 12.9 | 0.00 | 0.56 | 0.18 | 80 | 1010.3 |
| 20260506103101 | 11 | 280 | 3.2 | 17.7 | 0.00 | 0.56 | 0.18 | 80 | 1010.3 |
| 20260506101551 | 11 | 267 | 1.6 | 14.5 | 0.00 | 0.56 | 0.18 | 81 | 1010.2 |
| 20260506100056 | 11 | 311 | 1.6 | 9.7 | 0.00 | 0.56 | 0.18 | 83 | 1010.1 |
| 20260506094601 | 11 | 339 | 1.6 | 14.5 | 0.00 | 0.56 | 0.18 | 85 | 1010.0 |
| 20260506093047 | 10 | 282 | 1.6 | 8.0 | 0.00 | 0.56 | 0.18 | 87 | 1009.9 |
| 20260506091602 | 10 | 296 | 0.0 | 11.3 | 0.00 | 0.56 | 0.18 | 88 | 1009.9 |
| 20260506090057 | 9 | 283 | 1.6 | 8.0 | 0.00 | 0.56 | 0.18 | 91 | 1010.0 |
| 20260506084612 | 8 | 277 | 1.6 | 16.1 | 0.00 | 0.56 | 0.18 | 92 | 1009.9 |
| 20260506083054 | 8 | 271 | 0.0 | 11.3 | 0.00 | 0.56 | 0.18 | 93 | 1009.8 |
| 20260506081550 | 8 | 288 | 0.0 | 3.2 | 0.00 | 0.56 | 0.18 | 94 | 1009.7 |
| 20260506073101 | 8 | 284 | 1.6 | 8.0 | 0.00 | 0.56 | 0.18 | 94 | 1009.1 |
| 20260506071557 | 8 | 277 | 1.6 | 8.0 | 0.00 | 0.56 | 0.18 | 95 | 1009.1 |
| 20260506061559 | 8 | 268 | 1.6 | 6.4 | 0.00 | 0.56 | 0.18 | 95 | 1008.7 |
| 20260506050109 | 8 | 215 | 1.6 | 14.5 | 0.00 | 0.56 | 0.15 | 95 | 1007.7 |
| 20260506044556 | 8 | 285 | 3.2 | 6.4 | 0.00 | 0.56 | 0.15 | 95 | 1007.7 |
| 20260506043100 | 8 | 311 | 0.0 | 6.4 | 0.00 | 0.56 | 0.15 | 95 | 1007.7 |
| 20260506041552 | 8 | 270 | 1.6 | 8.0 | 0.00 | 0.56 | 0.15 | 95 | 1007.7 |
| 20260506040105 | 8 | 284 | 1.6 | 11.3 | 0.00 | 0.56 | 0.15 | 95 | 1007.7 |
| 20260506034601 | 8 | 0 | 1.6 | 8.0 | 0.00 | 0.56 | 0.15 | 95 | 1007.7 |
| 20260506033050 | 8 | 269 | 1.6 | 14.5 | 0.03 | 0.56 | 0.15 | 95 | 1007.7 |
| 20260506031554 | 8 | 286 | 1.6 | 11.3 | 0.00 | 0.53 | 0.13 | 95 | 1007.7 |
| 20260506030056 | 8 | 284 | 1.6 | 11.3 | 0.00 | 0.53 | 0.13 | 95 | 1007.7 |
| 20260506024557 | 9 | 268 | 1.6 | 6.4 | 0.00 | 0.53 | 0.13 | 95 | 1007.8 |
| 20260506023050 | 9 | 276 | 1.6 | 12.9 | 0.00 | 0.51 | 0.10 | 95 | 1007.9 |
| 20260506021602 | 9 | 292 | 1.6 | 6.4 | 0.00 | 0.51 | 0.10 | 95 | 1007.9 |
| 20260506020055 | 9 | 292 | 1.6 | 9.7 | 0.00 | 0.51 | 0.10 | 95 | 1007.8 |
| 20260506014554 | 9 | 0 | 1.6 | 12.9 | 0.00 | 0.51 | 0.10 | 95 | 1007.7 |
| 20260506013057 | 9 | 265 | 1.6 | 8.0 | 0.03 | 0.51 | 0.10 | 95 | 1007.8 |
| 20260506011604 | 9 | 281 | 1.6 | 11.3 | 0.03 | 0.51 | 0.10 | 94 | 1007.7 |
| 20260506010050 | 10 | 302 | 0.0 | 4.8 | 0.03 | 0.48 | 0.08 | 95 | 1007.8 |
| 20260506004553 | 10 | 281 | 1.6 | 11.3 | 0.05 | 0.48 | 0.08 | 95 | 1007.8 |
| 20260506003050 | 10 | 282 | 1.6 | 9.7 | 0.03 | 0.46 | 0.08 | 95 | 1007.8 |
| 20260506001552 | 10 | 236 | 1.6 | 6.4 | 0.05 | 0.46 | 0.08 | 94 | 1007.9 |
| 20260506000049 | 10 | 249 | 1.6 | 11.3 | 0.03 | 0.46 | 0.05 | 95 | 1007.9 |
| 20260505234602 | 10 | 290 | 1.6 | 6.4 | 0.00 | 0.43 | 0.03 | 95 | 1007.8 |
| 20260505233049 | 10 | 283 | 0.0 | 6.4 | 0.00 | 0.43 | 0.03 | 95 | 1007.8 |
| 20260505231605 | 10 | 283 | 0.0 | 12.9 | 0.00 | 0.41 | 0.00 | 95 | 1008.0 |
| 20260505230055 | 10 | 281 | 3.2 | 12.9 | 0.00 | 0.41 | 0.00 | 94 | 1008.0 |
| 20260505224554 | 10 | 296 | 1.6 | 12.9 | 0.00 | 0.41 | 0.00 | 94 | 1008.0 |
| 20260505223103 | 10 | 303 | 3.2 | 9.7 | 0.03 | 0.41 | 0.00 | 94 | 1008.0 |
| 20260505221557 | 10 | 269 | 1.6 | 12.9 | 0.05 | 0.41 | 0.00 | 94 | 1008.0 |
| 20260505220053 | 11 | 329 | 1.6 | 6.4 | 0.08 | 0.38 | 0.00 | 94 | 1008.0 |
| 20260505214612 | 11 | 297 | 1.6 | 9.7 | 0.10 | 0.38 | 0.38 | 95 | 1008.1 |
| 20260505213057 | 11 | 312 | 1.6 | 3.2 | 0.08 | 0.36 | 0.36 | 94 | 1008.1 |
| 20260505211549 | 11 | 0 | 0.0 | 6.4 | 0.08 | 0.36 | 0.36 | 94 | 1008.1 |
| 20260505210047 | 11 | 0 | 1.6 | 14.5 | 0.05 | 0.30 | 0.30 | 94 | 1008.2 |
| 20260505204547 | 11 | 271 | 0.0 | 4.8 | 0.00 | 0.28 | 0.28 | 94 | 1008.1 |
| 20260505203052 | 11 | 267 | 0.0 | 3.2 | 0.00 | 0.28 | 0.28 | 94 | 1008.1 |
| 20260505201554 | 11 | 0 | 0.0 | 6.4 | 0.00 | 0.28 | 0.28 | 94 | 1008.0 |
| 20260505200058 | 11 | 0 | 0.0 | 9.7 | 0.00 | 0.25 | 0.25 | 94 | 1007.9 |
| 20260505194549 | 11 | 298 | 0.0 | 4.8 | 0.00 | 0.25 | 0.25 | 94 | 1007.7 |
| 20260505193056 | 11 | 345 | 0.0 | 4.8 | 0.00 | 0.25 | 0.25 | 94 | 1007.6 |
| 20260505191548 | 11 | 281 | 0.0 | 4.8 | 0.00 | 0.25 | 0.25 | 94 | 1007.5 |
| 20260505190059 | 11 | 0 | 0.0 | 9.7 | 0.00 | 0.25 | 0.25 | 94 | 1007.5 |
| 20260505184602 | 11 | 0 | 1.6 | 4.8 | 0.00 | 0.25 | 0.25 | 94 | 1007.4 |
| 20260505183106 | 11 | 279 | 0.0 | 9.7 | 0.00 | 0.25 | 0.25 | 94 | 1007.2 |
| 20260505181555 | 11 | 300 | 0.0 | 6.4 | 0.00 | 0.25 | 0.25 | 94 | 1007.0 |
| 20260505180058 | 11 | 301 | 1.6 | 8.0 | 0.00 | 0.25 | 0.25 | 94 | 1007.1 |
| 20260505174558 | 11 | 15 | 0.0 | 14.5 | 0.00 | 0.25 | 0.25 | 94 | 1007.2 |
| 20260505173058 | 11 | 307 | 1.6 | 9.7 | 0.00 | 0.25 | 0.25 | 94 | 1007.0 |
| 20260505171551 | 11 | 0 | 1.6 | 8.0 | 0.00 | 0.25 | 0.25 | 94 | 1007.2 |
| 20260505170052 | 11 | 263 | 1.6 | 8.0 | 0.00 | 0.25 | 0.25 | 94 | 1007.3 |
| 20260505164601 | 11 | 286 | 1.6 | 8.0 | 0.00 | 0.28 | 0.25 | 94 | 1007.2 |
| 20260505163107 | 11 | 282 | 0.0 | 9.7 | 0.00 | 0.25 | 0.23 | 94 | 1007.1 |
| 20260505161550 | 11 | 319 | 3.2 | 9.7 | 0.00 | 0.25 | 0.23 | 93 | 1007.2 |
| 20260505153059 | 12 | 284 | 1.6 | 8.0 | 0.08 | 0.33 | 0.23 | 93 | 1007.2 |
| 20260505151556 | 12 | 277 | 1.6 | 14.5 | 0.10 | 0.30 | 0.20 | 93 | 1007.2 |
| 20260505140111 | 12 | 0 | 1.6 | 8.0 | 0.05 | 0.18 | 0.05 | 93 | 1007.2 |
| 20260505124602 | 13 | 17 | 1.6 | 12.9 | 0.00 | 0.13 | 0.00 | 90 | 1007.2 |
| 20260505123056 | 13 | 292 | 1.6 | 6.4 | 0.00 | 0.13 | 0.00 | 90 | 1007.2 |
| 20260505121559 | 13 | 338 | 1.6 | 12.9 | 0.00 | 0.13 | 0.00 | 89 | 1007.3 |
| 20260505120056 | 13 | 307 | 1.6 | 9.7 | 0.00 | 0.13 | 0.00 | 88 | 1007.4 |